createdAt,value
2023-01-17T00:00:49.912Z,77.19
2023-01-17T00:03:35.126Z,76.14
2023-01-17T00:06:22.274Z,76.20
2023-01-17T00:09:08.648Z,74.36
2023-01-17T00:11:53.888Z,73.27
2023-01-17T00:14:39.975Z,75.25
2023-01-17T00:17:25.231Z,76.46
2023-01-17T00:20:11.912Z,75.18
2023-01-17T00:22:59.410Z,76.79
2023-01-17T00:25:44.554Z,76.67
2023-01-17T00:28:29.286Z,75.48
2023-01-17T00:31:14.384Z,74.96
2023-01-17T00:34:06.631Z,75.38
2023-01-17T00:36:53.062Z,74.01
2023-01-17T00:39:39.991Z,74.37
2023-01-17T00:42:25.103Z,74.02
2023-01-17T00:45:09.956Z,73.05
2023-01-17T00:47:56.981Z,72.95
2023-01-17T00:50:42.196Z,74.63
2023-01-17T00:53:27.101Z,74.21
2023-01-17T00:56:22.356Z,72.62
2023-01-17T00:59:09.827Z,73.32
2023-01-17T01:01:57.414Z,72.85
2023-01-17T01:04:45.320Z,74.04
2023-01-17T01:07:32.693Z,74.79
2023-01-17T01:10:17.744Z,75.10
2023-01-17T01:13:03.904Z,73.55
2023-01-17T01:15:49.127Z,72.51
2023-01-17T01:18:33.992Z,73.55
2023-01-17T01:24:21.918Z,73.90
2023-01-17T01:27:07.016Z,73.87
2023-01-17T01:29:51.892Z,73.28
2023-01-17T01:32:36.903Z,74.96
2023-01-17T01:35:21.657Z,74.51
2023-01-17T01:38:06.538Z,73.42
2023-01-17T01:40:51.402Z,73.24
2023-01-17T01:43:36.432Z,74.35
2023-01-17T01:46:21.312Z,74.11
2023-01-17T01:49:06.260Z,74.02
2023-01-17T01:51:51.234Z,74.91
2023-01-17T01:54:36.237Z,73.05
2023-01-17T01:57:22.324Z,74.21
2023-01-17T02:00:07.455Z,74.10
2023-01-17T02:02:53.583Z,75.14
2023-01-17T02:05:38.951Z,75.45
2023-01-17T02:08:24.011Z,74.10
2023-01-17T02:11:09.116Z,74.46
2023-01-17T02:13:54.060Z,73.40
2023-01-17T02:16:38.943Z,74.62
2023-01-17T02:19:23.835Z,74.02
2023-01-17T02:22:11.030Z,73.68
2023-01-17T02:24:56.150Z,73.55
2023-01-17T02:27:40.979Z,74.62
2023-01-17T02:30:25.931Z,74.09
2023-01-17T02:33:10.903Z,73.15
2023-01-17T02:35:55.868Z,74.54
2023-01-17T02:38:42.385Z,74.07
2023-01-17T02:41:28.892Z,73.90
2023-01-17T02:44:14.133Z,74.89
2023-01-17T02:47:00.277Z,73.74
2023-01-17T02:49:49.276Z,74.42
2023-01-17T02:52:36.788Z,73.06
2023-01-17T02:55:21.852Z,73.32
2023-01-17T02:58:07.964Z,71.99
2023-01-17T03:00:53.238Z,75.08
2023-01-17T03:03:37.978Z,75.58
2023-01-17T03:06:22.790Z,74.20
2023-01-17T03:09:07.703Z,73.06
2023-01-17T03:11:53.804Z,74.21
2023-01-17T03:14:40.989Z,72.70
2023-01-17T03:17:25.945Z,73.54
2023-01-17T03:20:10.935Z,73.22
2023-01-17T03:22:58.225Z,73.06
2023-01-17T03:25:44.615Z,73.55
2023-01-17T03:28:29.938Z,72.33
2023-01-17T03:31:14.908Z,72.47
2023-01-17T03:33:59.863Z,72.87
2023-01-17T03:36:45.129Z,73.04
2023-01-17T03:39:29.962Z,73.39
2023-01-17T03:42:14.936Z,73.99
2023-01-17T03:44:59.730Z,73.75
2023-01-17T03:47:44.539Z,73.73
2023-01-17T03:50:29.411Z,73.52
2023-01-17T03:53:18.494Z,73.94
2023-01-17T03:56:03.733Z,73.95
2023-01-17T03:58:48.650Z,74.52
2023-01-17T04:01:33.764Z,74.06
2023-01-17T04:04:22.686Z,74.83
2023-01-17T04:07:07.945Z,73.63
2023-01-17T04:09:52.989Z,74.63
2023-01-17T04:12:37.957Z,74.30
2023-01-17T04:15:22.654Z,73.97
2023-01-17T04:18:07.524Z,73.96
2023-01-17T04:20:55.364Z,74.47
2023-01-17T04:23:41.669Z,74.15
2023-01-17T04:26:26.729Z,74.41
2023-01-17T04:29:12.775Z,73.33
2023-01-17T04:31:57.974Z,72.84
2023-01-17T04:34:43.155Z,73.29
2023-01-17T04:37:28.187Z,75.13
2023-01-17T04:40:14.244Z,74.34
2023-01-17T04:42:59.507Z,73.73
2023-01-17T04:45:44.317Z,72.87
2023-01-17T04:48:29.390Z,73.84
2023-01-17T04:51:14.298Z,71.46
2023-01-17T04:54:00.417Z,72.38
2023-01-17T04:56:45.624Z,72.83
2023-01-17T04:59:32.749Z,71.05
2023-01-17T05:02:17.847Z,71.11
2023-01-17T05:05:02.885Z,71.79
2023-01-17T05:07:47.833Z,73.27
2023-01-17T05:10:35.036Z,72.46
2023-01-17T05:13:24.512Z,70.00
2023-01-17T05:16:10.892Z,71.58
2023-01-17T05:18:57.832Z,72.93
2023-01-17T05:21:44.794Z,69.24
2023-01-17T05:24:31.760Z,70.54
2023-01-17T05:27:16.921Z,70.42
2023-01-17T05:30:04.204Z,70.68
2023-01-17T05:32:50.519Z,71.65
2023-01-17T05:35:35.960Z,69.93
2023-01-17T05:38:20.729Z,69.23
2023-01-17T05:41:05.804Z,70.79
2023-01-17T05:43:54.298Z,69.53
2023-01-17T05:46:39.500Z,68.54
2023-01-17T05:49:24.713Z,69.50
2023-01-17T05:52:11.902Z,70.50
2023-01-17T05:54:58.224Z,70.29
2023-01-17T05:57:43.392Z,71.53
2023-01-17T06:00:30.531Z,71.61
2023-01-17T06:03:16.851Z,70.63
2023-01-17T06:06:02.198Z,71.05
2023-01-17T06:08:51.790Z,70.50
2023-01-17T06:11:39.601Z,71.25
2023-01-17T06:14:24.823Z,70.88
2023-01-17T06:17:09.940Z,70.72
2023-01-17T06:19:54.904Z,70.45
2023-01-17T06:22:41.117Z,70.69
2023-01-17T06:25:26.365Z,69.66
2023-01-17T06:28:12.521Z,69.54
2023-01-17T06:30:57.867Z,70.96
2023-01-17T06:33:42.654Z,70.35
2023-01-17T06:36:27.700Z,70.10
2023-01-17T06:39:15.401Z,69.59
2023-01-17T06:42:00.440Z,70.82
2023-01-17T06:44:49.480Z,70.81
2023-01-17T06:47:38.831Z,70.05
2023-01-17T06:50:28.297Z,70.24
2023-01-17T06:53:13.677Z,71.01
2023-01-17T06:55:58.524Z,69.72
2023-01-17T06:58:45.670Z,70.28
2023-01-17T07:01:31.045Z,70.47
2023-01-17T07:04:16.302Z,70.58
2023-01-17T07:07:01.144Z,69.83
2023-01-17T07:09:46.014Z,70.19
2023-01-17T07:12:32.145Z,69.36
2023-01-17T07:15:17.395Z,70.10
2023-01-17T07:18:03.413Z,68.70
2023-01-17T07:20:50.934Z,68.47
2023-01-17T07:23:35.980Z,70.04
2023-01-17T07:26:20.771Z,68.98
2023-01-17T07:29:05.612Z,69.74
2023-01-17T07:31:50.434Z,69.03
2023-01-17T07:34:35.414Z,68.73
2023-01-17T07:37:20.248Z,69.61
2023-01-17T07:40:05.167Z,68.07
2023-01-17T07:42:53.806Z,68.71
2023-01-17T07:45:41.235Z,67.15
2023-01-17T07:48:26.330Z,67.74
2023-01-17T07:51:11.274Z,69.17
2023-01-17T07:53:56.154Z,69.18
2023-01-17T07:56:41.006Z,69.98
2023-01-17T07:59:33.190Z,70.17
2023-01-17T08:02:18.323Z,69.15
2023-01-17T08:05:03.386Z,69.06
2023-01-17T08:07:48.173Z,69.31
2023-01-17T08:10:33.133Z,69.46
2023-01-17T08:13:18.068Z,70.13
2023-01-17T08:16:02.958Z,70.06
2023-01-17T08:18:47.936Z,68.83
2023-01-17T08:21:32.772Z,69.91
2023-01-17T08:24:20.056Z,70.18
2023-01-17T08:27:05.197Z,69.94
2023-01-17T08:29:50.075Z,69.66
2023-01-17T08:32:36.125Z,69.96
2023-01-17T08:35:21.147Z,70.62
2023-01-17T08:38:08.528Z,70.46
2023-01-17T08:40:55.343Z,69.96
2023-01-17T08:43:40.372Z,70.07
2023-01-17T08:46:25.377Z,71.44
2023-01-17T08:49:11.499Z,70.93
2023-01-17T08:51:56.678Z,71.04
2023-01-17T08:54:42.650Z,70.13
2023-01-17T08:57:27.850Z,70.79
2023-01-17T09:00:13.940Z,71.26
2023-01-17T09:02:59.200Z,70.67
2023-01-17T09:05:44.229Z,71.74
2023-01-17T09:08:29.055Z,70.48
2023-01-17T09:11:15.110Z,70.17
2023-01-17T09:14:02.265Z,70.70
2023-01-17T09:16:47.220Z,69.75
2023-01-17T09:19:32.059Z,70.79
2023-01-17T09:22:17.011Z,69.89
2023-01-17T09:25:02.034Z,69.70
2023-01-17T09:27:46.834Z,69.46
2023-01-17T09:30:31.779Z,69.46
2023-01-17T09:33:19.602Z,69.77
2023-01-17T09:36:04.710Z,68.60
2023-01-17T09:38:49.633Z,68.93
2023-01-17T09:41:34.518Z,69.01
2023-01-17T09:44:19.526Z,69.13
2023-01-17T09:47:08.679Z,68.36
2023-01-17T09:49:53.809Z,70.60
2023-01-17T09:52:38.585Z,69.85
2023-01-17T09:55:25.803Z,69.19
2023-01-17T09:58:11.974Z,68.89
2023-01-17T10:01:01.160Z,69.73
2023-01-17T10:03:46.368Z,68.92
2023-01-17T10:06:31.479Z,69.48
2023-01-17T10:09:16.270Z,69.60
2023-01-17T10:12:01.060Z,69.41
2023-01-17T10:14:45.978Z,69.74
2023-01-17T10:17:30.853Z,69.50
2023-01-17T10:20:15.732Z,69.41
2023-01-17T10:23:00.715Z,69.19
2023-01-17T10:25:48.489Z,69.47
2023-01-17T10:28:33.666Z,71.54
2023-01-17T10:31:18.673Z,69.77
2023-01-17T10:34:03.536Z,69.80
2023-01-17T10:36:48.604Z,70.23
2023-01-17T10:39:33.448Z,69.64
2023-01-17T10:42:20.652Z,69.75
2023-01-17T10:45:05.618Z,70.37
2023-01-17T10:47:50.439Z,69.93
2023-01-17T10:50:36.502Z,70.28
2023-01-17T10:53:23.982Z,70.01
2023-01-17T10:56:09.153Z,69.84
2023-01-17T10:58:53.945Z,69.01
2023-01-17T11:01:43.508Z,69.07
2023-01-17T11:04:36.083Z,70.50
2023-01-17T11:07:21.201Z,70.65
2023-01-17T11:10:06.122Z,70.53
2023-01-17T11:12:53.409Z,70.02
2023-01-17T11:15:39.892Z,71.18
2023-01-17T11:18:28.697Z,70.47
2023-01-17T11:21:13.820Z,70.83
2023-01-17T11:23:58.797Z,71.16
2023-01-17T11:26:43.576Z,71.01
2023-01-17T11:29:29.636Z,71.76
2023-01-17T11:32:14.807Z,71.42
2023-01-17T11:34:59.736Z,69.95
2023-01-17T11:37:47.093Z,69.98
2023-01-17T11:40:32.100Z,69.91
2023-01-17T11:43:18.182Z,70.04
2023-01-17T11:46:03.507Z,71.33
2023-01-17T11:48:48.343Z,69.92
2023-01-17T11:51:33.446Z,69.99
2023-01-17T11:54:18.231Z,70.19
2023-01-17T11:57:03.093Z,69.67
2023-01-17T11:59:48.008Z,71.02
2023-01-17T12:02:32.918Z,72.13
2023-01-17T12:05:21.617Z,71.49
2023-01-17T12:08:06.798Z,71.27
2023-01-17T12:10:52.857Z,71.89
2023-01-17T12:13:38.008Z,71.44
2023-01-17T12:16:25.164Z,70.55
2023-01-17T12:19:10.376Z,71.12
2023-01-17T12:21:55.160Z,72.61
2023-01-17T12:24:40.108Z,71.11
2023-01-17T12:30:24.083Z,72.39
2023-01-17T12:33:10.827Z,73.64
2023-01-17T12:35:57.182Z,71.84
2023-01-17T12:38:42.369Z,73.38
2023-01-17T12:41:27.177Z,72.42
2023-01-17T12:44:12.109Z,73.48
2023-01-17T12:46:56.933Z,73.17
2023-01-17T12:49:41.732Z,71.61
2023-01-17T12:52:29.646Z,72.24
2023-01-17T12:55:17.189Z,74.28
2023-01-17T12:58:03.588Z,75.73
2023-01-17T13:00:48.766Z,72.98
2023-01-17T13:03:33.766Z,72.11
2023-01-17T13:06:20.549Z,72.71
2023-01-17T13:09:06.759Z,71.68
2023-01-17T13:11:52.000Z,72.42
2023-01-17T13:14:37.013Z,72.82
2023-01-17T13:17:22.949Z,73.25
2023-01-17T13:20:08.206Z,73.68
2023-01-17T13:22:53.135Z,73.13
2023-01-17T13:25:39.197Z,74.05
2023-01-17T13:28:24.347Z,72.31
2023-01-17T13:31:09.186Z,72.28
2023-01-17T13:33:54.049Z,73.86
2023-01-17T13:36:41.864Z,74.77
2023-01-17T13:39:26.953Z,74.84
2023-01-17T13:42:14.304Z,74.85
2023-01-17T13:45:06.053Z,75.04
2023-01-17T13:47:51.236Z,74.09
2023-01-17T13:50:37.353Z,73.66
2023-01-17T13:53:22.461Z,73.67
2023-01-17T13:56:07.343Z,73.02
2023-01-17T13:58:52.169Z,73.97
2023-01-17T14:01:37.210Z,72.77
2023-01-17T14:04:22.405Z,72.70
2023-01-17T14:07:07.290Z,71.44
2023-01-17T14:09:55.236Z,70.98
2023-01-17T14:12:40.363Z,69.64
2023-01-17T14:15:25.254Z,68.91
2023-01-17T14:18:13.921Z,70.24
2023-01-17T14:20:59.183Z,71.92
2023-01-17T14:23:46.466Z,69.88
2023-01-17T14:26:33.350Z,70.20
2023-01-17T14:29:18.520Z,73.45
2023-01-17T14:32:03.447Z,77.48
2023-01-17T14:34:48.272Z,74.15
2023-01-17T14:37:33.084Z,71.81
2023-01-17T14:40:18.136Z,70.76
2023-01-17T14:43:05.401Z,69.71
2023-01-17T14:45:54.926Z,69.44
2023-01-17T14:48:40.318Z,68.83
2023-01-17T14:51:29.012Z,68.13
2023-01-17T14:54:14.198Z,70.19
2023-01-17T14:57:02.238Z,70.64
2023-01-17T14:59:51.176Z,70.14
2023-01-17T15:02:39.590Z,70.53
2023-01-17T15:05:24.397Z,70.54
2023-01-17T15:08:15.098Z,71.67
2023-01-17T15:11:00.276Z,72.42
2023-01-17T15:13:46.405Z,71.73
2023-01-17T15:16:31.629Z,72.03
2023-01-17T15:19:17.510Z,72.56
2023-01-17T15:22:02.660Z,73.06
2023-01-17T15:24:55.057Z,73.33
2023-01-17T15:27:40.350Z,72.50
2023-01-17T15:30:25.190Z,71.44
2023-01-17T15:33:10.217Z,71.73
2023-01-17T15:35:55.100Z,72.24
2023-01-17T15:38:43.118Z,72.14
2023-01-17T15:41:28.392Z,71.76
2023-01-17T15:44:13.203Z,72.32
2023-01-17T15:47:02.313Z,71.28
2023-01-17T15:49:49.779Z,71.11
2023-01-17T15:52:36.107Z,71.78
2023-01-17T15:55:22.419Z,72.92
2023-01-17T15:58:07.812Z,72.78
2023-01-17T16:00:52.803Z,72.85
2023-01-17T16:03:40.043Z,73.24
2023-01-17T16:06:27.493Z,71.94
2023-01-17T16:09:12.630Z,71.87
2023-01-17T16:11:57.678Z,72.62
2023-01-17T16:14:59.587Z,72.68
2023-01-17T16:17:47.560Z,73.32
2023-01-17T16:20:32.900Z,74.99
2023-01-17T16:23:17.607Z,75.54
2023-01-17T16:26:02.622Z,73.55
2023-01-17T16:28:47.318Z,72.26
2023-01-17T16:31:32.109Z,76.25
2023-01-17T16:34:16.855Z,74.27
2023-01-17T16:37:01.820Z,73.73
2023-01-17T16:39:46.794Z,73.42
2023-01-17T16:42:31.675Z,74.71
2023-01-17T16:45:16.568Z,75.34
2023-01-17T16:48:01.291Z,76.04
2023-01-17T16:50:46.213Z,75.75
2023-01-17T16:53:30.988Z,74.42
2023-01-17T16:56:19.514Z,73.72
2023-01-17T16:59:04.881Z,74.02
2023-01-17T17:01:49.674Z,73.18
2023-01-17T17:04:34.664Z,73.61
2023-01-17T17:07:19.529Z,72.88
2023-01-17T17:10:04.499Z,72.79
2023-01-17T17:12:50.457Z,72.92
2023-01-17T17:15:35.692Z,72.53
2023-01-17T17:18:20.749Z,74.71
2023-01-17T17:21:05.591Z,74.30
2023-01-17T17:23:50.647Z,74.05
2023-01-17T17:26:35.522Z,73.81
2023-01-17T17:29:23.354Z,73.98
2023-01-17T17:32:08.618Z,73.18
2023-01-17T17:34:54.769Z,74.49
2023-01-17T17:37:41.288Z,74.78
2023-01-17T17:40:26.510Z,73.28
2023-01-17T17:43:13.324Z,73.81
2023-01-17T17:45:58.549Z,72.97
2023-01-17T17:48:43.359Z,73.83
2023-01-17T17:51:28.251Z,73.59
2023-01-17T17:54:13.020Z,73.28
2023-01-17T17:57:01.149Z,74.78
2023-01-17T17:59:46.277Z,74.67
2023-01-17T18:02:31.185Z,75.44
2023-01-17T18:05:17.222Z,74.95
2023-01-17T18:08:02.407Z,73.75
2023-01-17T18:10:48.615Z,74.82
2023-01-17T18:13:33.935Z,73.81
2023-01-17T18:16:18.817Z,73.90
2023-01-17T18:19:04.905Z,73.02
2023-01-17T18:21:51.958Z,73.22
2023-01-17T18:24:37.180Z,72.46
2023-01-17T18:27:32.443Z,73.15
2023-01-17T18:30:17.769Z,72.78
2023-01-17T18:33:02.696Z,72.25
2023-01-17T18:35:47.570Z,73.09
2023-01-17T18:38:34.811Z,72.45
2023-01-17T18:41:20.039Z,71.73
2023-01-17T18:44:04.923Z,72.70
2023-01-17T18:46:49.760Z,72.41
2023-01-17T18:49:34.693Z,70.34
2023-01-17T18:52:19.640Z,67.41
2023-01-17T18:55:04.479Z,67.68
2023-01-17T18:57:52.928Z,65.25
2023-01-17T19:00:42.133Z,66.92
2023-01-17T19:03:28.418Z,64.64
2023-01-17T19:06:15.472Z,64.77
2023-01-17T19:09:03.062Z,64.94
2023-01-17T19:11:48.186Z,65.77
2023-01-17T19:14:34.345Z,66.86
2023-01-17T19:17:19.715Z,68.03
2023-01-17T19:20:04.551Z,68.24
2023-01-17T19:22:49.513Z,67.07
2023-01-17T19:25:34.555Z,68.26
2023-01-17T19:28:19.540Z,68.22
2023-01-17T19:31:04.387Z,68.58
2023-01-17T19:33:49.371Z,67.94
2023-01-17T19:36:35.292Z,66.73
2023-01-17T19:39:20.558Z,69.06
2023-01-17T19:42:05.565Z,68.93
2023-01-17T19:44:50.621Z,68.72
2023-01-17T19:47:35.690Z,67.13
2023-01-17T19:50:20.471Z,66.98
2023-01-17T19:53:10.564Z,66.79
2023-01-17T19:55:55.760Z,67.19
2023-01-17T19:58:40.541Z,66.28
2023-01-17T20:01:25.572Z,66.19
2023-01-17T20:04:12.103Z,66.80
2023-01-17T20:06:57.368Z,67.48
2023-01-17T20:09:42.429Z,67.32
2023-01-17T20:12:27.332Z,66.45
2023-01-17T20:15:12.321Z,65.52
2023-01-17T20:17:59.730Z,66.09
2023-01-17T20:20:56.862Z,68.03
2023-01-17T20:23:49.897Z,69.33
2023-01-17T20:26:35.272Z,69.26
2023-01-17T20:29:20.321Z,67.85
2023-01-17T20:32:05.240Z,68.19
2023-01-17T20:34:50.028Z,70.59
2023-01-17T20:37:38.658Z,70.72
2023-01-17T20:40:26.766Z,69.28
2023-01-17T20:43:13.626Z,69.50
2023-01-17T20:45:58.892Z,70.14
2023-01-17T20:48:44.204Z,69.11
2023-01-17T20:51:29.151Z,69.60
2023-01-17T20:54:13.988Z,70.75
2023-01-17T20:57:06.241Z,70.11
2023-01-17T20:59:51.343Z,70.03
2023-01-17T21:02:36.202Z,70.40
2023-01-17T21:05:22.938Z,70.57
2023-01-17T21:08:10.469Z,71.99
2023-01-17T21:10:55.646Z,70.61
2023-01-17T21:13:41.593Z,69.68
2023-01-17T21:16:29.429Z,69.26
2023-01-17T21:19:14.332Z,70.02
2023-01-17T21:21:59.220Z,73.62
2023-01-17T21:24:47.996Z,73.87
2023-01-17T21:27:34.910Z,73.22
2023-01-17T21:30:19.949Z,74.23
2023-01-17T21:33:04.887Z,73.09
2023-01-17T21:35:49.683Z,72.03
2023-01-17T21:38:34.704Z,72.18
2023-01-17T21:41:21.853Z,72.11
2023-01-17T21:44:06.893Z,72.25
2023-01-17T21:46:54.202Z,71.18
2023-01-17T21:49:40.841Z,71.17
2023-01-17T21:52:25.631Z,71.77
2023-01-17T21:55:10.528Z,70.98
2023-01-17T21:57:57.474Z,70.41
2023-01-17T22:00:43.980Z,69.26
2023-01-17T22:03:29.215Z,68.77
2023-01-17T22:06:14.086Z,68.36
2023-01-17T22:08:58.991Z,67.78
2023-01-17T22:11:43.932Z,69.06
2023-01-17T22:14:31.727Z,69.75
2023-01-17T22:17:17.022Z,68.46
2023-01-17T22:20:01.933Z,67.79
2023-01-17T22:22:48.290Z,65.89
2023-01-17T22:25:33.335Z,66.22
2023-01-17T22:28:30.973Z,67.54
2023-01-17T22:31:17.851Z,67.33
2023-01-17T22:34:04.772Z,66.10
2023-01-17T22:36:49.859Z,66.23
2023-01-17T22:39:36.954Z,64.66
2023-01-17T22:42:22.053Z,63.62
2023-01-17T22:45:07.033Z,64.43
2023-01-17T22:47:58.662Z,63.40
2023-01-17T22:50:43.814Z,63.48
2023-01-17T22:53:28.718Z,63.83
2023-01-17T22:56:15.359Z,63.60
2023-01-17T22:59:01.773Z,64.51
2023-01-17T23:01:48.117Z,63.91
2023-01-17T23:04:35.133Z,63.87
2023-01-17T23:07:21.518Z,63.00
2023-01-17T23:10:06.721Z,63.45
2023-01-17T23:12:51.541Z,65.29
2023-01-17T23:15:37.649Z,64.84
2023-01-17T23:18:23.971Z,65.36
2023-01-17T23:21:10.420Z,65.86
2023-01-17T23:23:57.018Z,66.09
2023-01-17T23:26:43.377Z,67.57
2023-01-17T23:29:29.810Z,68.19
2023-01-17T23:32:16.323Z,70.32
2023-01-17T23:35:02.745Z,71.01
2023-01-17T23:37:48.076Z,69.76
2023-01-17T23:40:32.949Z,70.38
2023-01-17T23:43:17.888Z,71.64
2023-01-17T23:46:02.739Z,73.26
2023-01-17T23:48:47.738Z,74.88
2023-01-17T23:51:32.662Z,76.82
2023-01-17T23:54:18.727Z,77.22
2023-01-17T23:57:05.167Z,79.58
2023-01-17T23:59:52.771Z,80.08
